Time;durP1;ratioP1;P1;durP2;ratioP2;P2;SDS_P1;SDS_P2;PMS_P1;PMS_P2;Temp;Humidity;BMP_temperature;BMP_pressure;BME280_temperature;BME280_humidity;BME280_pressure;Samples;Min_cycle;Max_cycle;Signal;HPM_P1;HPM_P2
2021/04/06 00:00:12;;;;;;;11.95;4.92;;;;;;;2.54;77.45;98575.56;1691952;82;21632;-80
2021/04/06 00:02:41;;;;;;;15.25;5.72;;;;;;;2.42;77.79;98593.15;1710321;82;22132;-82
2021/04/06 00:05:09;;;;;;;15.88;4.90;;;;;;;2.51;77.51;98587.08;1687580;82;21718;-78
2021/04/06 00:07:39;;;;;;;16.00;5.35;;;;;;;2.57;77.15;98585.70;1691454;82;21690;-78
2021/04/06 00:10:10;;;;;;;12.47;4.97;;;;;;;2.45;77.57;98583.25;1713334;82;21309;-79
2021/04/06 00:12:36;;;;;;;16.25;5.40;;;;;;;2.47;77.18;98586.56;1706911;82;22220;-80
2021/04/06 00:15:03;;;;;;;13.83;5.78;;;;;;;2.56;77.24;98585.34;1661641;84;22103;-76
2021/04/06 00:17:28;;;;;;;15.03;4.97;;;;;;;2.48;77.09;98586.88;1711040;82;21671;-84
2021/04/06 00:19:56;;;;;;;12.13;4.78;;;;;;;2.57;77.29;98602.64;1693464;83;22221;-78
2021/04/06 00:22:24;;;;;;;14.40;5.40;;;;;;;2.54;77.08;98608.95;1692331;83;22619;-77
2021/04/06 00:24:51;;;;;;;13.88;5.10;;;;;;;2.57;77.08;98620.39;1689462;83;21216;-78
2021/04/06 00:27:31;;;;;;;14.97;5.00;;;;;;;2.65;76.80;98614.46;1668592;83;21209;-85
2021/04/06 00:30:10;;;;;;;16.10;5.53;;;;;;;2.61;76.89;98605.28;1710772;82;21345;-77
2021/04/06 00:32:37;;;;;;;14.63;5.08;;;;;;;2.56;77.17;98611.41;1719310;82;21246;-78
2021/04/06 00:35:07;;;;;;;16.52;5.47;;;;;;;2.46;77.50;98616.66;1705921;82;21185;-81
2021/04/06 00:37:48;;;;;;;15.10;5.00;;;;;;;2.57;77.41;98615.66;1708699;82;21213;-83
2021/04/06 00:40:14;;;;;;;13.43;4.70;;;;;;;2.51;77.27;98629.58;1743085;81;21102;-82
2021/04/06 00:42:43;;;;;;;16.02;5.75;;;;;;;2.54;77.22;98617.25;1715919;81;21242;-80
2021/04/06 00:45:18;;;;;;;12.40;4.78;;;;;;;2.51;77.22;98604.83;1710907;82;21220;-83
2021/04/06 00:47:44;;;;;;;16.73;5.55;;;;;;;2.64;76.81;98640.17;1700068;82;21698;-78
2021/04/06 00:50:13;;;;;;;13.20;5.20;;;;;;;2.72;76.76;98615.53;1692275;83;21245;-82
2021/04/06 00:52:43;;;;;;;19.50;5.70;;;;;;;2.79;76.40;98623.09;1694092;82;21379;-79
2021/04/06 00:55:13;;;;;;;18.80;5.40;;;;;;;2.72;76.38;98637.70;1695383;82;21635;-79
2021/04/06 00:57:40;;;;;;;13.93;5.15;;;;;;;2.55;76.95;98647.54;1695096;83;21236;-76
2021/04/06 01:00:21;;;;;;;15.13;5.80;;;;;;;2.62;76.40;98647.32;1693717;82;21163;-77
2021/04/06 01:03:15;;;;;;;11.68;4.62;;;;;;;2.67;76.72;98642.49;1695587;82;21206;-82
2021/04/06 01:06:05;;;;;;;15.10;5.47;;;;;;;2.72;76.25;98642.91;1691378;81;21219;-77
2021/04/06 01:08:32;;;;;;;11.68;4.90;;;;;;;2.48;76.64;98646.80;1699372;83;21588;-77
2021/04/06 01:11:06;;;;;;;;;;;;;;;2.49;76.66;98652.36;1701300;82;21227;-76
2021/04/06 01:13:35;;;;;;;15.60;5.30;;;;;;;2.66;76.30;98665.63;1697162;83;20299;-78
2021/04/06 01:16:06;;;;;;;14.25;5.45;;;;;;;2.41;76.17;98647.05;1693769;83;21159;-78
2021/04/06 01:18:33;;;;;;;20.02;5.58;;;;;;;2.41;76.17;98647.05;1690373;83;21185;-76
2021/04/06 01:21:02;;;;;;;;;;;;;;;2.44;76.84;98665.00;1673086;83;21223;-77
2021/04/06 01:23:28;;;;;;;15.25;5.50;;;;;;;2.62;76.31;98668.17;1698812;83;20231;-88
2021/04/06 01:25:57;;;;;;;17.17;5.40;;;;;;;2.60;75.92;98666.20;1700539;83;21313;-76
2021/04/06 01:28:34;;;;;;;17.45;5.35;;;;;;;2.46;76.46;98659.16;1668536;83;21185;-78
2021/04/06 01:31:03;;;;;;;13.43;5.22;;;;;;;2.28;76.94;98677.77;1694075;83;21205;-81
2021/04/06 01:33:31;;;;;;;12.80;4.67;;;;;;;2.36;76.70;98669.26;1684740;82;21271;-83
2021/04/06 01:36:02;;;;;;;14.65;4.78;;;;;;;2.23;76.90;98672.17;1672008;83;21711;-76
2021/04/06 01:38:29;;;;;;;14.70;4.87;;;;;;;2.14;76.98;98679.86;1693447;83;21217;-83
2021/04/06 01:41:00;;;;;;;13.20;4.72;;;;;;;2.04;77.38;98671.22;1667956;83;21182;-80
2021/04/06 01:43:29;;;;;;;16.12;4.80;;;;;;;2.10;77.49;98694.11;1696836;83;21437;-80
2021/04/06 01:46:11;;;;;;;14.30;4.97;;;;;;;1.95;77.65;98695.48;1700013;82;21221;-77
2021/04/06 01:48:37;;;;;;;17.15;5.40;;;;;;;1.99;77.84;98696.86;1695258;82;21667;-77
2021/04/06 01:51:05;;;;;;;13.83;4.58;;;;;;;2.00;77.49;98703.69;1697786;83;21146;-78
2021/04/06 01:53:38;;;;;;;18.17;5.22;;;;;;;1.92;78.06;98706.17;1672866;83;21223;-77
2021/04/06 01:56:10;;;;;;;15.20;4.42;;;;;;;1.95;77.83;98704.59;1695255;82;22154;-82
2021/04/06 01:58:36;;;;;;;13.28;4.80;;;;;;;1.96;77.70;98704.95;1692902;82;21182;-82
2021/04/06 02:03:38;;;;;;;12.07;4.25;;;;;;;1.74;77.67;98724.22;1669816;83;21019;-80
2021/04/06 02:06:03;;;;;;;11.78;4.10;;;;;;;1.87;77.67;98709.66;1694679;83;21221;-79
2021/04/06 02:08:32;;;;;;;;;;;;;;;1.94;77.50;98709.45;1700799;83;21175;-76
2021/04/06 02:11:00;;;;;;;13.30;4.10;;;;;;;1.87;77.46;98709.66;1688499;82;20234;-83
2021/04/06 02:13:31;;;;;;;11.60;4.03;;;;;;;1.86;77.53;98719.73;1695393;83;21262;-77
2021/04/06 02:16:00;;;;;;;12.20;4.05;;;;;;;1.86;77.12;98721.84;1694486;82;21482;-77
2021/04/06 02:18:29;;;;;;;11.97;4.33;;;;;;;1.82;77.56;98715.28;1694054;82;21200;-77
2021/04/06 02:21:02;;;;;;;15.83;4.62;;;;;;;1.83;77.38;98723.91;1667583;83;21221;-79
2021/04/06 02:23:41;;;;;;;15.20;4.72;;;;;;;1.89;77.46;98719.45;1692558;83;21177;-81
2021/04/06 02:26:07;;;;;;;13.83;4.25;;;;;;;2.04;76.98;98725.09;1693043;83;21179;-78
2021/04/06 02:28:33;;;;;;;11.80;4.60;;;;;;;1.84;77.30;98734.66;1692207;83;20924;-78
2021/04/06 02:31:02;;;;;;;13.57;4.20;;;;;;;1.90;77.16;98721.11;1695767;81;20956;-84
2021/04/06 02:33:34;;;;;;;10.98;3.83;;;;;;;1.90;76.56;98732.83;1671927;83;21275;-88
2021/04/06 02:36:09;;;;;;;14.70;4.30;;;;;;;1.94;76.34;98731.58;1669101;83;21186;-76
2021/04/06 02:38:40;;;;;;;16.55;4.10;;;;;;;1.97;76.19;98722.19;1691563;83;21198;-78
2021/04/06 02:41:15;;;;;;;13.90;4.00;;;;;;;2.01;75.78;98731.38;1683410;83;21629;-78
2021/04/06 02:43:50;;;;;;;11.70;4.42;;;;;;;2.08;75.58;98742.06;1678590;83;21271;-77
2021/04/06 02:46:23;;;;;;;12.93;3.87;;;;;;;2.02;75.51;98722.63;1691045;83;21460;-79
2021/04/06 02:48:50;;;;;;;13.95;4.17;;;;;;;1.79;75.81;98738.48;1709721;81;21584;-85
2021/04/06 02:51:19;;;;;;;12.00;3.85;;;;;;;1.95;75.34;98728.02;1683969;83;21171;-79
2021/04/06 02:53:49;;;;;;;11.78;3.58;;;;;;;1.93;75.15;98732.55;1684839;83;21685;-77
2021/04/06 02:56:33;;;;;;;8.58;3.45;;;;;;;1.84;75.31;98760.70;1687688;83;21265;-83
2021/04/06 02:59:20;;;;;;;11.10;3.37;;;;;;;1.98;74.98;98716.03;1666388;83;21553;-80
2021/04/06 03:01:47;;;;;;;10.85;3.80;;;;;;;1.94;74.92;98726.37;1692279;83;21219;-80
2021/04/06 03:04:27;;;;;;;10.32;3.42;;;;;;;2.00;74.98;98736.23;1685983;83;26857;-79
2021/04/06 03:06:56;;;;;;;9.80;3.37;;;;;;;1.95;74.85;98728.83;1689803;83;21231;-78
2021/04/06 03:09:24;;;;;;;12.65;3.67;;;;;;;1.95;74.80;98731.93;1692351;81;21186;-78
2021/04/06 03:11:54;;;;;;;12.47;3.35;;;;;;;1.94;74.85;98753.70;1657001;83;21653;-78
2021/04/06 03:14:25;;;;;;;12.30;3.20;;;;;;;1.85;75.28;98758.41;1662741;83;21206;-78
2021/04/06 03:16:53;;;;;;;11.85;3.30;;;;;;;1.91;75.07;98735.75;1690322;83;21135;-78
2021/04/06 03:19:30;;;;;;;10.90;3.25;;;;;;;1.96;74.88;98729.68;1688788;83;21624;-78
2021/04/06 03:22:01;;;;;;;9.58;3.20;;;;;;;1.98;74.73;98723.84;1657456;83;21227;-79
2021/04/06 03:24:30;;;;;;;10.50;3.30;;;;;;;1.99;74.88;98725.50;1688749;83;21599;-80
2021/04/06 03:27:01;;;;;;;10.23;3.05;;;;;;;2.09;74.74;98726.30;1684167;83;21174;-77
2021/04/06 03:29:30;;;;;;;10.82;3.17;;;;;;;2.05;74.47;98720.20;1685298;83;21209;-78
2021/04/06 03:31:56;;;;;;;15.38;3.58;;;;;;;1.93;75.11;98729.46;1694647;83;21234;-77
2021/04/06 03:34:22;;;;;;;7.30;3.13;;;;;;;1.91;75.22;98750.06;1632337;83;21213;-80
2021/04/06 03:36:53;;;;;;;8.93;3.00;;;;;;;1.86;75.50;98728.84;1657775;83;21259;-77
2021/04/06 03:39:21;;;;;;;10.70;3.37;;;;;;;1.86;75.79;98731.44;1691699;83;21133;-82
2021/04/06 03:41:49;;;;;;;9.05;3.08;;;;;;;1.83;76.12;98739.52;1639979;83;21218;-77
2021/04/06 03:44:15;;;;;;;12.07;3.17;;;;;;;1.90;76.20;98723.71;1684662;83;21181;-78
2021/04/06 03:46:44;;;;;;;11.43;3.30;;;;;;;1.95;76.95;98747.55;1631607;81;21198;-76
2021/04/06 03:49:23;;;;;;;15.75;3.25;;;;;;;1.79;78.18;98737.67;1687478;83;21221;-82
2021/04/06 03:52:05;;;;;;;13.48;3.30;;;;;;;1.80;78.30;98739.30;1686506;83;21284;-77
2021/04/06 03:54:49;;;;;;;11.12;3.50;;;;;;;1.79;78.55;98739.78;1684833;83;21182;-77
2021/04/06 03:57:37;;;;;;;13.25;3.45;;;;;;;1.83;78.89;98736.42;1664872;83;21195;-79
2021/04/06 03:59:58;;;;;;;11.83;3.05;;;;;;;1.77;78.68;98749.52;1667788;83;21309;-79
2021/04/06 04:02:24;;;;;;;13.70;3.25;;;;;;;1.85;78.11;98741.50;1669179;83;21241;-80
2021/04/06 04:04:56;;;;;;;11.67;3.43;;;;;;;1.86;78.28;98747.05;1687600;83;21034;-80
2021/04/06 04:07:21;;;;;;;10.20;3.27;;;;;;;1.96;77.97;98730.98;1688576;83;21103;-77
2021/04/06 04:09:47;;;;;;;9.77;3.00;;;;;;;1.92;78.01;98733.50;1660881;84;20944;-82
2021/04/06 04:12:17;;;;;;;9.78;3.30;;;;;;;1.82;78.33;98746.97;1688582;83;21232;-77
2021/04/06 04:14:46;;;;;;;13.55;3.10;;;;;;;1.84;78.42;98741.17;1688800;83;21245;-81
2021/04/06 04:17:15;;;;;;;8.43;2.87;;;;;;;1.96;77.93;98736.19;1688782;83;21248;-77
2021/04/06 04:19:42;;;;;;;11.80;3.45;;;;;;;1.90;77.72;98749.74;1693910;83;21200;-77
2021/04/06 04:22:10;;;;;;;9.60;3.50;;;;;;;1.94;77.57;98739.38;1689854;83;21198;-76
2021/04/06 04:24:37;;;;;;;11.50;3.33;;;;;;;1.93;77.69;98739.06;1693908;83;21192;-83
2021/04/06 04:27:05;;;;;;;8.53;3.33;;;;;;;1.92;77.62;98740.01;1688607;83;21223;-80
2021/04/06 04:29:33;;;;;;;12.40;3.27;;;;;;;1.93;77.27;98747.69;1693848;83;21141;-78
2021/04/06 04:32:02;;;;;;;;;;;;;;;2.06;76.90;98750.50;1687855;83;21172;-76
2021/04/06 04:34:30;;;;;;;9.13;3.02;;;;;;;2.03;77.00;98746.88;1671499;84;20657;-79
2021/04/06 04:36:55;;;;;;;;;;;;;;;2.04;76.76;98762.36;1675917;84;21183;-77
2021/04/06 04:39:21;;;;;;;9.40;3.15;;;;;;;2.07;76.62;98759.97;1675254;84;22454;-82
2021/04/06 04:41:52;;;;;;;10.97;3.17;;;;;;;2.14;76.28;98763.19;1660591;85;21663;-81
2021/04/06 04:44:18;;;;;;;14.43;3.33;;;;;;;2.06;76.33;98776.05;1660162;85;21220;-80
2021/04/06 04:46:46;;;;;;;8.97;3.50;;;;;;;2.13;76.21;98764.63;1672582;84;21277;-77
2021/04/06 04:49:15;;;;;;;12.30;3.33;;;;;;;2.23;76.06;98768.53;1685528;83;21201;-80
2021/04/06 04:51:40;;;;;;;15.50;3.22;;;;;;;2.12;75.95;98761.19;1687281;84;21238;-78
2021/04/06 04:54:08;;;;;;;7.53;3.13;;;;;;;2.22;75.62;98764.27;1691064;83;20993;-81
2021/04/06 04:56:36;;;;;;;;;;;;;;;2.18;75.50;98773.34;1686353;84;21224;-79
2021/04/06 04:59:01;;;;;;;11.20;3.17;;;;;;;2.09;76.00;98757.55;1687225;84;20278;-79
2021/04/06 05:01:27;;;;;;;13.10;3.53;;;;;;;2.20;75.66;98766.20;1653962;85;21223;-79
2021/04/06 05:03:53;;;;;;;17.43;3.80;;;;;;;2.20;75.69;98760.99;1678337;84;22006;-80
2021/04/06 05:06:20;;;;;;;9.68;3.47;;;;;;;2.24;75.68;98763.19;1681219;84;21182;-82
2021/04/06 05:08:48;;;;;;;9.63;3.62;;;;;;;2.24;75.39;98768.89;1647764;84;21198;-82
2021/04/06 05:11:18;;;;;;;16.57;4.08;;;;;;;2.18;75.59;98791.08;1672592;84;21186;-84
2021/04/06 05:13:46;;;;;;;12.35;3.80;;;;;;;2.17;75.73;98787.31;1657667;84;21445;-81
2021/04/06 05:16:14;;;;;;;10.23;3.52;;;;;;;2.30;75.45;98776.13;1683649;83;21260;-82
2021/04/06 05:18:42;;;;;;;16.25;3.65;;;;;;;2.24;75.59;98764.98;1686754;84;21158;-81
2021/04/06 05:21:08;;;;;;;13.00;3.77;;;;;;;2.22;75.57;98800.73;1670140;84;21201;-79
2021/04/06 05:23:36;;;;;;;14.17;4.23;;;;;;;2.22;75.80;98795.53;1690091;84;21006;-79
2021/04/06 05:26:03;;;;;;;;;;;;;;;2.30;75.82;98799.56;1686749;84;21187;-81
2021/04/06 05:28:30;;;;;;;12.18;3.42;;;;;;;2.17;75.97;98797.72;1687321;83;26997;-81
2021/04/06 05:30:57;;;;;;;;;;;;;;;2.24;75.40;98811.86;1690183;84;21551;-80
2021/04/06 05:33:23;;;;;;;13.78;3.70;;;;;;;2.50;75.16;98810.36;1683840;84;20532;-80
2021/04/06 05:35:55;;;;;;;11.80;3.30;;;;;;;2.33;74.99;98819.67;1658013;84;21126;-84
2021/04/06 05:38:25;;;;;;;11.10;3.92;;;;;;;2.53;74.61;98821.45;1684565;84;21228;-83
2021/04/06 05:40:52;;;;;;;12.98;4.20;;;;;;;2.67;74.04;98830.14;1689079;84;21445;-84
2021/04/06 05:43:21;;;;;;;14.78;4.10;;;;;;;2.60;74.10;98830.38;1712239;81;21354;-81
2021/04/06 05:45:51;;;;;;;17.45;4.45;;;;;;;2.47;74.77;98846.27;1668940;84;21186;-80
2021/04/06 05:48:19;;;;;;;13.75;4.42;;;;;;;2.62;74.67;98834.47;1657144;84;21243;-80
2021/04/06 05:50:51;;;;;;;;;;;;;;;2.64;74.61;98844.76;1704276;82;21604;-80
2021/04/06 05:53:23;;;;;;;11.78;4.40;;;;;;;2.47;75.15;98840.59;1702082;83;21227;-86
2021/04/06 05:55:50;;;;;;;10.00;4.22;;;;;;;2.63;74.81;98832.22;1693350;83;21197;-81
2021/04/06 05:58:17;;;;;;;12.80;4.50;;;;;;;2.67;74.87;98830.14;1697326;83;21186;-83
2021/04/06 06:00:43;;;;;;;13.62;4.03;;;;;;;2.57;75.06;98830.65;1698308;82;21201;-80
2021/04/06 06:03:11;;;;;;;14.73;4.37;;;;;;;2.44;75.49;98849.98;1696489;82;21206;-81
2021/04/06 06:05:41;;;;;;;14.85;4.60;;;;;;;2.62;75.38;98847.98;1692628;83;21518;-78
2021/04/06 06:08:12;;;;;;;13.83;4.90;;;;;;;2.64;75.02;98844.76;1695341;83;21529;-81
2021/04/06 06:10:40;;;;;;;13.83;4.30;;;;;;;2.60;75.07;98866.86;1668102;83;21830;-84
2021/04/06 06:13:25;;;;;;;17.42;5.15;;;;;;;2.69;75.24;98899.92;1691083;82;21210;-80
2021/04/06 06:16:21;;;;;;;13.58;5.37;;;;;;;2.69;75.24;98899.92;1688639;82;21180;-79
2021/04/06 06:19:03;;;;;;;21.62;5.90;;;;;;;2.69;75.50;98898.63;1689074;83;21205;-85
2021/04/06 06:21:58;;;;;;;13.13;5.08;;;;;;;2.64;75.15;98908.16;1695017;82;21252;-82
2021/04/06 06:24:34;;;;;;;16.75;5.20;;;;;;;2.74;75.15;98887.30;1692721;83;21223;-80
2021/04/06 06:27:02;;;;;;;13.30;4.95;;;;;;;2.74;75.15;98887.30;1693569;83;21659;-80
2021/04/06 06:29:34;;;;;;;13.32;4.65;;;;;;;2.95;74.67;98895.45;1695845;83;21225;-81
2021/04/06 06:32:00;;;;;;;18.30;5.12;;;;;;;2.79;74.79;98894.70;1696667;82;22091;-82
2021/04/06 06:34:36;;;;;;;17.23;5.65;;;;;;;2.80;74.53;98899.78;1694355;82;21661;-80
2021/04/06 06:37:26;;;;;;;12.98;4.80;;;;;;;2.84;74.31;98906.38;1691014;83;21205;-82
2021/04/06 06:40:02;;;;;;;12.55;4.80;;;;;;;2.84;74.31;98906.38;1700293;82;21595;-81
2021/04/06 06:42:37;;;;;;;15.50;4.87;;;;;;;2.59;74.90;98905.11;1695166;83;21685;-80
2021/04/06 06:45:05;;;;;;;14.45;4.72;;;;;;;2.78;74.88;98899.11;1640804;83;21208;-80
2021/04/06 06:47:33;;;;;;;16.60;5.35;;;;;;;2.69;74.77;98905.95;1694814;82;21192;-80
2021/04/06 06:50:12;;;;;;;18.98;5.20;;;;;;;2.75;74.61;98917.63;1702107;82;21647;-80
2021/04/06 06:52:40;;;;;;;18.90;5.05;;;;;;;2.77;74.71;98904.45;1690672;83;21228;-80
2021/04/06 06:55:20;;;;;;;;;;;;;;;2.67;74.74;98905.27;1697351;83;21763;-80
2021/04/06 06:57:49;;;;;;;16.32;4.70;;;;;;;2.65;74.98;98911.57;1666303;83;21111;-81
2021/04/06 07:00:18;;;;;;;14.87;5.08;;;;;;;2.65;75.07;98911.08;1690111;83;21202;-83
2021/04/06 07:02:44;;;;;;;18.00;5.30;;;;;;;2.66;74.80;98876.73;1648879;83;21238;-83
2021/04/06 07:05:23;;;;;;;16.40;5.37;;;;;;;2.97;73.91;98904.78;1691408;83;21307;-80
2021/04/06 07:08:06;;;;;;;18.77;5.60;;;;;;;2.79;74.77;98901.22;1693566;83;21221;-81
2021/04/06 07:10:37;;;;;;;16.93;5.50;;;;;;;2.60;75.19;98915.89;1695218;83;21977;-82
2021/04/06 07:13:18;;;;;;;22.10;5.40;;;;;;;2.86;74.57;98933.13;1665902;83;21235;-82
2021/04/06 07:15:46;;;;;;;17.15;5.25;;;;;;;2.73;74.98;98942.98;1710837;82;21181;-83
2021/04/06 07:18:21;;;;;;;19.90;5.40;;;;;;;2.75;74.89;98921.54;1694167;83;21200;-82
2021/04/06 07:21:05;;;;;;;18.07;5.28;;;;;;;2.83;74.75;98931.28;1697922;82;21254;-82
2021/04/06 07:23:43;;;;;;;19.82;5.60;;;;;;;3.00;74.20;98932.38;1689797;83;21219;-79
2021/04/06 07:26:13;;;;;;;21.15;5.47;;;;;;;2.76;74.48;98936.69;1691605;83;21186;-85
2021/04/06 07:28:43;;;;;;;20.05;5.17;;;;;;;2.84;74.25;98941.58;1690541;83;21200;-80
2021/04/06 07:31:14;;;;;;;19.95;5.30;;;;;;;3.09;74.15;98941.95;1694403;82;21213;-82
2021/04/06 07:33:41;;;;;;;24.70;5.72;;;;;;;2.82;74.01;98953.91;1689972;83;21192;-82
2021/04/06 07:36:10;;;;;;;12.43;3.90;;;;;;;2.74;74.33;98942.53;1691235;82;21640;-79
2021/04/06 07:38:40;;;;;;;15.60;4.92;;;;;;;3.04;73.89;98941.56;1668162;83;21209;-82
2021/04/06 07:41:07;;;;;;;21.77;5.70;;;;;;;3.13;73.43;98929.00;1688729;83;21317;-82
2021/04/06 07:43:35;;;;;;;17.57;4.53;;;;;;;2.98;73.46;98939.50;1693369;82;21627;-84
2021/04/06 07:46:02;;;;;;;19.87;5.20;;;;;;;3.03;73.39;98930.31;1696462;83;21981;-84
2021/04/06 07:48:50;;;;;;;21.42;5.42;;;;;;;2.92;73.05;98938.75;1709307;81;21220;-82
2021/04/06 07:51:28;;;;;;;15.20;4.92;;;;;;;3.04;72.57;98930.64;1699373;82;21850;-83
2021/04/06 07:54:12;;;;;;;19.48;5.33;;;;;;;3.04;72.57;98930.64;1704485;81;21194;-79
2021/04/06 07:57:01;;;;;;;25.12;5.87;;;;;;;3.14;71.84;98937.17;1676395;83;21160;-81
2021/04/06 07:59:35;;;;;;;18.67;5.47;;;;;;;3.14;71.84;98937.17;1587199;88;21267;-81
2021/04/06 08:02:09;;;;;;;20.30;5.47;;;;;;;3.03;72.06;98942.52;1608918;88;21912;-83
2021/04/06 08:04:49;;;;;;;18.87;5.25;;;;;;;3.17;71.69;98939.51;1639804;83;21253;-80
2021/04/06 08:07:28;;;;;;;17.75;4.85;;;;;;;3.20;71.06;98927.48;1690963;83;21732;-80
2021/04/06 08:10:02;;;;;;;24.52;5.50;;;;;;;3.27;70.76;98945.20;1692057;82;21236;-80
2021/04/06 08:12:33;;;;;;;18.07;5.15;;;;;;;3.13;71.21;98937.31;1687657;83;21205;-80
2021/04/06 08:15:19;;;;;;;23.25;5.40;;;;;;;3.22;70.73;98938.59;1668604;83;22087;-81
2021/04/06 08:17:54;;;;;;;18.02;5.00;;;;;;;3.12;70.60;98929.95;1664253;83;21251;-81
2021/04/06 08:20:31;;;;;;;20.00;5.50;;;;;;;3.29;70.67;98919.78;1688887;82;21229;-83
2021/04/06 08:23:13;;;;;;;20.50;4.80;;;;;;;3.46;70.41;98936.02;1690985;83;21187;-83
2021/04/06 08:25:45;;;;;;;17.60;4.95;;;;;;;3.20;68.99;98932.70;1689526;82;21238;-82
2021/04/06 08:28:37;;;;;;;16.82;4.72;;;;;;;3.63;68.37;98927.13;1695919;83;21175;-81
2021/04/06 08:31:25;;;;;;;17.32;4.90;;;;;;;3.63;68.37;98927.13;1690849;83;21206;-82
2021/04/06 08:33:53;;;;;;;21.00;4.85;;;;;;;3.58;68.25;98935.38;1657303;83;21230;-81
2021/04/06 08:36:26;;;;;;;19.10;5.20;;;;;;;3.49;68.13;98938.84;1685578;83;21214;-80
2021/04/06 08:38:52;;;;;;;28.27;5.58;;;;;;;3.47;68.41;98965.08;1686537;82;21230;-81
2021/04/06 08:41:33;;;;;;;18.02;4.58;;;;;;;3.47;68.41;98965.08;1684734;83;21231;-80
2021/04/06 08:44:05;;;;;;;22.35;5.70;;;;;;;3.54;67.61;98961.41;1687424;83;21255;-80
2021/04/06 08:46:43;;;;;;;23.12;5.67;;;;;;;3.63;67.77;98962.37;1691789;83;21072;-80
2021/04/06 08:49:25;;;;;;;18.95;5.20;;;;;;;3.48;67.66;98975.02;1682244;82;21216;-80
2021/04/06 08:52:01;;;;;;;19.92;5.60;;;;;;;3.40;67.83;98966.58;1710675;82;21676;-79
2021/04/06 08:54:34;;;;;;;18.73;4.83;;;;;;;3.51;67.72;98969.06;1706599;82;22057;-81
2021/04/06 08:57:03;;;;;;;19.07;5.25;;;;;;;3.59;67.55;98970.48;1689885;83;21242;-80
2021/04/06 08:59:34;;;;;;;21.05;5.83;;;;;;;3.80;66.29;98964.73;1693707;82;21580;-79
2021/04/06 09:02:12;;;;;;;23.02;5.67;;;;;;;3.57;66.69;98973.72;1710326;81;21186;-80
2021/04/06 09:04:45;;;;;;;22.30;5.70;;;;;;;3.61;66.88;98964.30;1692502;83;21729;-81
2021/04/06 09:07:28;;;;;;;19.52;5.65;;;;;;;3.76;65.75;98966.81;1684642;83;21896;-82
2021/04/06 09:10:02;;;;;;;22.75;5.80;;;;;;;3.98;65.07;98973.47;1690906;83;21487;-79
2021/04/06 09:12:28;;;;;;;22.05;5.12;;;;;;;4.00;64.99;98989.00;1687715;83;21202;-81
2021/04/06 09:14:55;;;;;;;18.70;5.80;;;;;;;3.88;65.56;98978.70;1666502;83;21966;-82
2021/04/06 09:17:31;;;;;;;20.82;5.87;;;;;;;3.88;65.85;98976.09;1668232;83;21195;-80
2021/04/06 09:19:57;;;;;;;22.95;5.60;;;;;;;3.75;66.37;98978.21;1691011;83;21635;-80
2021/04/06 09:22:24;;;;;;;19.40;5.67;;;;;;;3.95;65.79;98959.39;1673975;83;21054;-81
2021/04/06 09:24:52;;;;;;;17.75;5.40;;;;;;;3.78;65.71;98966.98;1685985;83;21871;-82
2021/04/06 09:27:21;;;;;;;;;;;;;;;3.82;65.91;98964.09;1688620;83;21239;-80
2021/04/06 09:29:48;;;;;;;19.25;6.10;;;;;;;4.02;65.21;98954.41;1683649;83;20536;-79
2021/04/06 09:32:17;;;;;;;21.40;5.97;;;;;;;3.85;65.62;98963.32;1668980;82;21947;-80
2021/04/06 09:34:50;;;;;;;17.27;6.17;;;;;;;3.92;65.67;98963.59;1670392;83;21656;-79
2021/04/06 09:37:21;;;;;;;18.35;4.97;;;;;;;4.04;64.93;98961.61;1684268;83;21643;-79
2021/04/06 09:39:58;;;;;;;22.67;5.87;;;;;;;4.08;65.36;98968.20;1670057;83;21209;-80
2021/04/06 09:42:21;;;;;;;21.73;5.53;;;;;;;3.99;65.50;98954.20;1686061;83;21252;-80
2021/04/06 09:44:50;;;;;;;21.97;5.60;;;;;;;4.03;65.59;98954.76;1690274;83;22059;-82
2021/04/06 09:47:19;;;;;;;21.82;5.10;;;;;;;4.03;65.59;98954.76;1690357;83;21231;-81
2021/04/06 09:49:51;;;;;;;18.92;5.60;;;;;;;4.13;65.44;98960.75;1686350;83;21203;-80
2021/04/06 09:52:24;;;;;;;21.20;5.55;;;;;;;4.14;65.52;98954.56;1684721;83;21257;-83
2021/04/06 09:55:02;;;;;;;17.35;4.55;;;;;;;4.50;65.07;98958.57;1668729;84;21514;-79
2021/04/06 09:57:37;;;;;;;16.05;5.05;;;;;;;4.70;64.42;98940.16;1677355;83;22492;-81
2021/04/06 10:00:22;;;;;;;16.55;5.28;;;;;;;4.58;63.74;98954.73;1698781;81;21214;-82
2021/04/06 10:03:14;;;;;;;18.65;5.17;;;;;;;4.53;63.78;98951.74;1707833;81;21131;-82
2021/04/06 10:05:44;;;;;;;20.62;5.40;;;;;;;4.45;64.19;98959.50;1707608;81;21190;-80
2021/04/06 10:08:11;;;;;;;16.97;4.95;;;;;;;4.40;63.80;98961.74;1705050;82;21186;-80
2021/04/06 10:10:41;;;;;;;22.65;5.00;;;;;;;4.55;63.35;98955.52;1702624;81;21960;-83
2021/04/06 10:13:10;;;;;;;19.90;5.25;;;;;;;4.58;62.02;98948.19;1702836;82;21292;-78
2021/04/06 10:15:38;;;;;;;18.35;5.03;;;;;;;4.68;61.79;98948.16;1706428;81;22489;-80
2021/04/06 10:18:10;;;;;;;19.92;5.30;;;;;;;5.00;61.51;98937.17;1700716;82;21174;-80
2021/04/06 10:20:50;;;;;;;17.37;4.90;;;;;;;4.81;61.55;98949.09;1676232;83;21237;-80
2021/04/06 10:23:34;;;;;;;17.15;4.62;;;;;;;4.82;61.75;98931.12;1707092;82;21201;-81
2021/04/06 10:26:00;;;;;;;16.02;4.78;;;;;;;4.62;61.64;98933.86;1699180;83;21209;-81
2021/04/06 10:28:31;;;;;;;20.20;4.97;;;;;;;5.02;60.90;98933.91;1672097;82;20959;-79
2021/04/06 10:31:01;;;;;;;13.58;4.50;;;;;;;5.00;60.46;98937.17;1698853;82;21100;-81
2021/04/06 10:33:35;;;;;;;16.05;5.15;;;;;;;4.85;60.62;98937.37;1701323;81;21183;-77
2021/04/06 10:36:09;;;;;;;18.45;5.67;;;;;;;5.08;60.25;98939.51;1699468;82;21962;-80
2021/04/06 10:38:38;;;;;;;15.90;5.00;;;;;;;4.85;60.90;98934.75;1701592;81;21224;-79
2021/04/06 10:41:17;;;;;;;21.90;5.37;;;;;;;4.58;61.07;98946.88;1674749;82;21241;-80
2021/04/06 10:43:47;;;;;;;17.67;5.45;;;;;;;4.88;61.18;98947.53;1704036;82;21196;-80
2021/04/06 10:46:22;;;;;;;22.87;5.80;;;;;;;4.30;62.26;98947.40;1705769;82;21239;-79
2021/04/06 10:48:54;;;;;;;24.05;6.08;;;;;;;4.18;62.90;98942.87;1704556;82;39099;-81
2021/04/06 10:51:24;;;;;;;20.32;5.60;;;;;;;4.26;62.86;98954.72;1691106;82;21205;-83
2021/04/06 10:53:52;;;;;;;18.73;5.47;;;;;;;4.11;63.04;98932.16;1708343;82;21228;-82
2021/04/06 10:56:31;;;;;;;22.20;5.47;;;;;;;4.41;62.73;98939.84;1690693;83;21230;-80
2021/04/06 10:59:00;;;;;;;21.17;6.12;;;;;;;4.24;62.94;98946.20;1687889;82;21146;-80
2021/04/06 11:01:40;;;;;;;21.87;6.42;;;;;;;4.00;63.92;98951.13;1687023;83;21396;-79
2021/04/06 11:04:18;;;;;;;27.32;6.05;;;;;;;3.80;64.92;98955.09;1690115;83;21223;-79
2021/04/06 11:06:50;;;;;;;18.25;5.95;;;;;;;3.70;65.91;98951.71;1690516;83;21197;-78
2021/04/06 11:09:23;;;;;;;18.17;5.75;;;;;;;3.82;64.87;98962.79;1685907;83;21460;-77
2021/04/06 11:11:53;;;;;;;19.65;5.92;;;;;;;3.81;64.96;98956.75;1685895;83;21166;-80
2021/04/06 11:14:23;;;;;;;20.32;5.58;;;;;;;3.98;64.92;98951.73;1690201;83;22081;-80
2021/04/06 11:16:50;;;;;;;20.92;5.83;;;;;;;3.96;65.09;98964.94;1688254;82;21538;-84
2021/04/06 11:19:20;;;;;;;;;;;;;;;3.80;64.25;98964.23;1688905;83;21210;-80
2021/04/06 11:21:54;;;;;;;16.40;5.12;;;;;;;3.98;64.08;98955.65;1689142;83;20777;-81
2021/04/06 11:24:23;;;;;;;18.45;5.28;;;;;;;4.11;63.75;98947.02;1687773;83;21452;-81
2021/04/06 11:26:51;;;;;;;18.20;5.10;;;;;;;3.79;64.33;98979.55;1667125;84;22717;-81
2021/04/06 11:29:24;;;;;;;19.90;5.05;;;;;;;3.73;63.70;98990.59;1686470;83;21182;-82
2021/04/06 11:31:52;;;;;;;18.23;4.87;;;;;;;3.88;62.86;98967.45;1688917;83;21266;-81
2021/04/06 11:34:20;;;;;;;17.12;4.50;;;;;;;3.87;61.76;98982.30;1689551;83;21194;-78
2021/04/06 11:36:46;;;;;;;;;;;;;;;3.99;60.94;98982.13;1668164;83;21626;-79
2021/04/06 11:39:15;;;;;;;16.70;4.60;;;;;;;3.94;60.15;98978.63;1673472;83;22787;-82
2021/04/06 11:41:44;;;;;;;14.03;4.17;;;;;;;4.00;60.01;98979.86;1691872;83;21270;-81
2021/04/06 11:44:11;;;;;;;15.88;4.60;;;;;;;4.07;58.96;98980.91;1691465;82;21245;-85
2021/04/06 11:46:38;;;;;;;18.87;4.33;;;;;;;4.24;58.68;98973.64;1697150;83;21583;-83
2021/04/06 11:49:05;;;;;;;;;;;;;;;4.42;57.99;98959.80;1666606;85;21645;-81
2021/04/06 11:51:31;;;;;;;15.48;4.03;;;;;;;4.28;57.49;98969.75;1703602;82;20989;-82
2021/04/06 11:53:57;;;;;;;15.83;5.20;;;;;;;4.37;57.01;98976.41;1714813;82;21147;-81
2021/04/06 11:56:23;;;;;;;12.50;4.17;;;;;;;4.51;56.25;98987.67;1671861;84;21208;-84
2021/04/06 11:58:51;;;;;;;14.67;4.03;;;;;;;4.56;56.04;98976.28;1684594;83;26914;-83